sensor_id;sensor_type;location;lat;lon;timestamp;pressure;altitude;pressure_sealevel;temperature;humidity
40838;BME280;29632;49.168;9.848;2023-02-11T00:02:01;98707.34;;;5.83;38.63
40838;BME280;29632;49.168;9.848;2023-02-11T00:04:26;98707.28;;;5.84;38.50
40838;BME280;29632;49.168;9.848;2023-02-11T00:06:52;98706.41;;;5.85;38.62
40838;BME280;29632;49.168;9.848;2023-02-11T00:09:18;98702.13;;;5.84;38.45
40838;BME280;29632;49.168;9.848;2023-02-11T00:11:43;98700.44;;;5.83;38.51
40838;BME280;29632;49.168;9.848;2023-02-11T00:14:09;98696.25;;;5.81;38.74
40838;BME280;29632;49.168;9.848;2023-02-11T00:16:36;98694.56;;;5.80;38.29
40838;BME280;29632;49.168;9.848;2023-02-11T00:19:02;98698.91;;;5.79;38.52
40838;BME280;29632;49.168;9.848;2023-02-11T00:21:30;98696.38;;;5.78;38.72
40838;BME280;29632;49.168;9.848;2023-02-11T00:23:57;98693.78;;;5.78;38.45
40838;BME280;29632;49.168;9.848;2023-02-11T00:26:26;98701.59;;;5.76;38.79
40838;BME280;29632;49.168;9.848;2023-02-11T00:28:52;98696.59;;;5.73;38.77
40838;BME280;29632;49.168;9.848;2023-02-11T00:31:20;98690.69;;;5.70;38.56
40838;BME280;29632;49.168;9.848;2023-02-11T00:33:46;98683.16;;;5.65;38.65
40838;BME280;29632;49.168;9.848;2023-02-11T00:36:15;98679.84;;;5.61;39.15
40838;BME280;29632;49.168;9.848;2023-02-11T00:38:42;98675.72;;;5.57;38.89
40838;BME280;29632;49.168;9.848;2023-02-11T00:41:10;98671.59;;;5.53;38.74
40838;BME280;29632;49.168;9.848;2023-02-11T00:43:35;98671.88;;;5.47;38.80
40838;BME280;29632;49.168;9.848;2023-02-11T00:46:01;98686.13;;;5.35;39.05
40838;BME280;29632;49.168;9.848;2023-02-11T00:48:26;98667.59;;;5.25;39.22
40838;BME280;29632;49.168;9.848;2023-02-11T00:50:52;98661.94;;;5.17;39.17
40838;BME280;29632;49.168;9.848;2023-02-11T00:53:18;98661.28;;;5.12;39.48
40838;BME280;29632;49.168;9.848;2023-02-11T00:55:44;98657.88;;;5.10;39.39
40838;BME280;29632;49.168;9.848;2023-02-11T00:58:09;98668.31;;;5.08;39.37
40838;BME280;29632;49.168;9.848;2023-02-11T01:00:35;98658.09;;;5.05;39.00
40838;BME280;29632;49.168;9.848;2023-02-11T01:03:01;98658.16;;;5.04;39.19
40838;BME280;29632;49.168;9.848;2023-02-11T01:05:27;98659.91;;;5.03;39.26
40838;BME280;29632;49.168;9.848;2023-02-11T01:07:53;98654.75;;;5.03;39.18
40838;BME280;29632;49.168;9.848;2023-02-11T01:10:18;98648.72;;;5.03;38.90
40838;BME280;29632;49.168;9.848;2023-02-11T01:12:44;98657.19;;;5.06;39.14
40838;BME280;29632;49.168;9.848;2023-02-11T01:15:12;98651.91;;;5.09;39.22
40838;BME280;29632;49.168;9.848;2023-02-11T01:17:38;98657.00;;;5.11;39.18
40838;BME280;29632;49.168;9.848;2023-02-11T01:20:06;98656.28;;;5.07;39.36
40838;BME280;29632;49.168;9.848;2023-02-11T01:22:32;98660.75;;;5.04;39.27
40838;BME280;29632;49.168;9.848;2023-02-11T01:24:59;98653.00;;;5.04;39.01
40838;BME280;29632;49.168;9.848;2023-02-11T01:27:25;98645.19;;;5.05;39.05
40838;BME280;29632;49.168;9.848;2023-02-11T01:29:50;98653.72;;;5.07;39.24
40838;BME280;29632;49.168;9.848;2023-02-11T01:32:16;98662.06;;;5.14;38.90
40838;BME280;29632;49.168;9.848;2023-02-11T01:34:41;98661.84;;;5.19;39.27
40838;BME280;29632;49.168;9.848;2023-02-11T01:37:07;98657.38;;;5.22;38.90
40838;BME280;29632;49.168;9.848;2023-02-11T01:39:33;98664.19;;;5.25;39.09
40838;BME280;29632;49.168;9.848;2023-02-11T01:41:59;98663.19;;;5.27;39.06
40838;BME280;29632;49.168;9.848;2023-02-11T01:44:37;98662.31;;;5.28;39.11
40838;BME280;29632;49.168;9.848;2023-02-11T01:47:04;98656.16;;;5.31;38.95
40838;BME280;29632;49.168;9.848;2023-02-11T01:49:41;98658.66;;;5.33;38.86
40838;BME280;29632;49.168;9.848;2023-02-11T01:52:11;98651.78;;;5.33;39.06
40838;BME280;29632;49.168;9.848;2023-02-11T01:54:41;98640.53;;;5.34;38.93
40838;BME280;29632;49.168;9.848;2023-02-11T01:57:29;98634.41;;;5.37;38.67
40838;BME280;29632;49.168;9.848;2023-02-11T02:00:00;98623.19;;;5.36;38.88
40838;BME280;29632;49.168;9.848;2023-02-11T02:02:53;98613.09;;;5.32;38.98
40838;BME280;29632;49.168;9.848;2023-02-11T02:05:54;98609.78;;;5.28;38.63
40838;BME280;29632;49.168;9.848;2023-02-11T02:08:30;98613.34;;;5.25;39.05
40838;BME280;29632;49.168;9.848;2023-02-11T02:10:57;98615.09;;;5.25;39.09
40838;BME280;29632;49.168;9.848;2023-02-11T02:13:30;98609.03;;;5.26;39.17
40838;BME280;29632;49.168;9.848;2023-02-11T02:16:04;98609.84;;;5.26;39.39
40838;BME280;29632;49.168;9.848;2023-02-11T02:21:44;98602.69;;;5.33;39.26
40838;BME280;29632;49.168;9.848;2023-02-11T02:41:41;98564.00;;;5.11;39.36
40838;BME280;29632;49.168;9.848;2023-02-11T02:44:07;98558.16;;;5.07;39.75
40838;BME280;29632;49.168;9.848;2023-02-11T02:46:34;98553.88;;;5.06;39.47
40838;BME280;29632;49.168;9.848;2023-02-11T02:49:00;98550.59;;;5.03;39.45
40838;BME280;29632;49.168;9.848;2023-02-11T03:06:07;98553.81;;;5.08;39.30
40838;BME280;29632;49.168;9.848;2023-02-11T03:11:09;98567.38;;;5.13;39.60
40838;BME280;29632;49.168;9.848;2023-02-11T03:13:36;98572.34;;;5.18;39.71
40838;BME280;29632;49.168;9.848;2023-02-11T03:16:25;98569.53;;;5.22;39.63
40838;BME280;29632;49.168;9.848;2023-02-11T03:18:58;98568.53;;;5.26;39.38
40838;BME280;29632;49.168;9.848;2023-02-11T03:21:26;98564.06;;;5.30;39.75
40838;BME280;29632;49.168;9.848;2023-02-11T03:23:55;98566.50;;;5.33;39.75
40838;BME280;29632;49.168;9.848;2023-02-11T03:26:27;98556.09;;;5.35;39.74
40838;BME280;29632;49.168;9.848;2023-02-11T03:28:59;98552.09;;;5.27;39.59
40838;BME280;29632;49.168;9.848;2023-02-11T03:34:25;98559.22;;;5.22;39.70
40838;BME280;29632;49.168;9.848;2023-02-11T03:36:58;98553.28;;;5.20;39.94
40838;BME280;29632;49.168;9.848;2023-02-11T03:39:35;98542.88;;;5.22;39.78
40838;BME280;29632;49.168;9.848;2023-02-11T03:42:03;98547.22;;;5.21;39.83
40838;BME280;29632;49.168;9.848;2023-02-11T03:44:33;98551.47;;;5.22;39.84
40838;BME280;29632;49.168;9.848;2023-02-11T03:47:01;98553.22;;;5.22;40.17
40838;BME280;29632;49.168;9.848;2023-02-11T03:49:28;98553.22;;;5.22;39.84
40838;BME280;29632;49.168;9.848;2023-02-11T03:51:54;98551.63;;;5.19;39.99
40838;BME280;29632;49.168;9.848;2023-02-11T03:54:25;98549.88;;;5.20;39.86
40838;BME280;29632;49.168;9.848;2023-02-11T03:56:55;98565.22;;;5.23;39.85
40838;BME280;29632;49.168;9.848;2023-02-11T03:59:21;98559.94;;;5.26;39.72
40838;BME280;29632;49.168;9.848;2023-02-11T04:01:47;98560.72;;;5.28;39.91
40838;BME280;29632;49.168;9.848;2023-02-11T04:04:13;98562.38;;;5.29;40.02
40838;BME280;29632;49.168;9.848;2023-02-11T04:06:39;98563.13;;;5.31;39.94
40838;BME280;29632;49.168;9.848;2023-02-11T04:09:05;98573.47;;;5.31;39.83
40838;BME280;29632;49.168;9.848;2023-02-11T04:11:30;98563.13;;;5.31;40.01
40838;BME280;29632;49.168;9.848;2023-02-11T04:13:56;98570.00;;;5.32;40.10
40838;BME280;29632;49.168;9.848;2023-02-11T04:16:22;98573.47;;;5.31;40.11
40838;BME280;29632;49.168;9.848;2023-02-11T04:18:47;98577.63;;;5.35;39.84
40838;BME280;29632;49.168;9.848;2023-02-11T04:21:13;98578.31;;;5.39;39.82
40838;BME280;29632;49.168;9.848;2023-02-11T04:23:38;98575.44;;;5.45;39.69
40838;BME280;29632;49.168;9.848;2023-02-11T04:26:05;98574.34;;;5.51;40.28
40838;BME280;29632;49.168;9.848;2023-02-11T04:28:31;98579.25;;;5.57;39.79
40838;BME280;29632;49.168;9.848;2023-02-11T04:30:56;98576.41;;;5.63;39.47
40838;BME280;29632;49.168;9.848;2023-02-11T04:33:23;98567.59;;;5.67;39.12
40838;BME280;29632;49.168;9.848;2023-02-11T04:35:48;98573.38;;;5.72;39.67
40838;BME280;29632;49.168;9.848;2023-02-11T04:38:14;98561.91;;;5.78;39.69
40838;BME280;29632;49.168;9.848;2023-02-11T04:40:40;98548.91;;;5.79;39.89
40838;BME280;29632;49.168;9.848;2023-02-11T04:43:05;98542.84;;;5.80;39.54
40838;BME280;29632;49.168;9.848;2023-02-11T04:45:32;98553.13;;;5.82;39.63
40838;BME280;29632;49.168;9.848;2023-02-11T04:47:57;98534.94;;;5.83;39.71
40838;BME280;29632;49.168;9.848;2023-02-11T04:50:23;98529.75;;;5.83;39.71
40838;BME280;29632;49.168;9.848;2023-02-11T04:52:49;98529.69;;;5.85;39.85
40838;BME280;29632;49.168;9.848;2023-02-11T04:55:15;98518.59;;;5.83;40.05
40838;BME280;29632;49.168;9.848;2023-02-11T04:57:41;98520.47;;;5.79;40.24
40838;BME280;29632;49.168;9.848;2023-02-11T05:00:07;98533.47;;;5.78;40.04
40838;BME280;29632;49.168;9.848;2023-02-11T05:02:34;98532.56;;;5.79;39.85
40838;BME280;29632;49.168;9.848;2023-02-11T05:05:00;98531.66;;;5.80;40.07
40838;BME280;29632;49.168;9.848;2023-02-11T05:07:26;98535.94;;;5.81;39.92
40838;BME280;29632;49.168;9.848;2023-02-11T05:09:52;98534.94;;;5.83;40.00
40838;BME280;29632;49.168;9.848;2023-02-11T05:12:18;98523.69;;;5.84;40.13
40838;BME280;29632;49.168;9.848;2023-02-11T05:14:44;98534.78;;;5.86;40.08
40838;BME280;29632;49.168;9.848;2023-02-11T05:17:09;98528.84;;;5.84;39.94
40838;BME280;29632;49.168;9.848;2023-02-11T05:19:35;98526.19;;;5.86;39.85
40838;BME280;29632;49.168;9.848;2023-02-11T05:22:01;98534.59;;;5.91;39.80
40838;BME280;29632;49.168;9.848;2023-02-11T05:24:26;98530.06;;;5.96;40.08
40838;BME280;29632;49.168;9.848;2023-02-11T05:26:52;98525.66;;;5.98;39.94
40838;BME280;29632;49.168;9.848;2023-02-11T05:29:17;98521.19;;;6.02;40.18
40838;BME280;29632;49.168;9.848;2023-02-11T05:31:44;98520.97;;;6.07;39.54
40838;BME280;29632;49.168;9.848;2023-02-11T05:34:10;98519.84;;;6.12;39.61
40838;BME280;29632;49.168;9.848;2023-02-11T05:36:35;98529.03;;;6.18;40.04
40838;BME280;29632;49.168;9.848;2023-02-11T05:39:01;98520.22;;;6.22;39.78
40838;BME280;29632;49.168;9.848;2023-02-11T05:41:27;98515.75;;;6.26;39.63
40838;BME280;29632;49.168;9.848;2023-02-11T05:43:52;98522.59;;;6.27;39.59
40838;BME280;29632;49.168;9.848;2023-02-11T05:46:18;98532.09;;;6.26;39.68
40838;BME280;29632;49.168;9.848;2023-02-11T05:48:44;98528.59;;;6.27;39.98
40838;BME280;29632;49.168;9.848;2023-02-11T05:51:09;98530.19;;;6.30;40.21
40838;BME280;29632;49.168;9.848;2023-02-11T05:53:35;98531.72;;;6.34;39.75
40838;BME280;29632;49.168;9.848;2023-02-11T05:56:01;98518.63;;;6.37;39.86
40838;BME280;29632;49.168;9.848;2023-02-11T05:58:27;98507.38;;;6.38;40.32
40838;BME280;29632;49.168;9.848;2023-02-11T06:00:53;98515.03;;;6.39;40.14
40838;BME280;29632;49.168;9.848;2023-02-11T06:03:18;98517.50;;;6.42;39.86
40838;BME280;29632;49.168;9.848;2023-02-11T06:05:44;98522.53;;;6.46;40.39
40838;BME280;29632;49.168;9.848;2023-02-11T06:08:10;98518.34;;;6.43;40.06
40838;BME280;29632;49.168;9.848;2023-02-11T06:10:36;98513.38;;;6.38;39.91
40838;BME280;29632;49.168;9.848;2023-02-11T06:13:01;98504.00;;;6.36;39.92
40838;BME280;29632;49.168;9.848;2023-02-11T06:15:27;98505.84;;;6.34;40.40
40838;BME280;29632;49.168;9.848;2023-02-11T06:17:53;98513.69;;;6.32;40.10
40838;BME280;29632;49.168;9.848;2023-02-11T06:20:18;98507.59;;;6.33;40.23
40838;BME280;29632;49.168;9.848;2023-02-11T06:22:44;98504.94;;;6.35;40.41
40838;BME280;29632;49.168;9.848;2023-02-11T06:25:10;98499.53;;;6.39;40.34
40838;BME280;29632;49.168;9.848;2023-02-11T06:27:37;98506.31;;;6.42;40.57
40838;BME280;29632;49.168;9.848;2023-02-11T06:30:04;98523.53;;;6.43;40.56
40838;BME280;29632;49.168;9.848;2023-02-11T06:32:30;98514.63;;;6.49;40.04
40838;BME280;29632;49.168;9.848;2023-02-11T06:34:55;98523.28;;;6.48;40.05
40838;BME280;29632;49.168;9.848;2023-02-11T06:37:21;98521.44;;;6.50;39.95
40838;BME280;29632;49.168;9.848;2023-02-11T06:39:47;98515.38;;;6.51;40.45
40838;BME280;29632;49.168;9.848;2023-02-11T06:42:12;98523.13;;;6.51;40.16
40838;BME280;29632;49.168;9.848;2023-02-11T06:44:38;98518.03;;;6.49;40.23
40838;BME280;29632;49.168;9.848;2023-02-11T06:47:03;98514.69;;;6.47;40.08
40838;BME280;29632;49.168;9.848;2023-02-11T06:49:29;98523.53;;;6.43;40.62
40838;BME280;29632;49.168;9.848;2023-02-11T06:51:55;98509.88;;;6.39;40.36
40838;BME280;29632;49.168;9.848;2023-02-11T06:54:20;98513.53;;;6.35;40.69
40838;BME280;29632;49.168;9.848;2023-02-11T06:56:46;98510.13;;;6.35;40.84
40838;BME280;29632;49.168;9.848;2023-02-11T06:59:16;98511.94;;;6.33;40.18
40838;BME280;29632;49.168;9.848;2023-02-11T07:01:42;98506.84;;;6.31;40.89
40838;BME280;29632;49.168;9.848;2023-02-11T07:04:07;98512.84;;;6.32;40.78
40838;BME280;29632;49.168;9.848;2023-02-11T07:06:33;98519.84;;;6.30;40.81
40838;BME280;29632;49.168;9.848;2023-02-11T07:08:59;98524.19;;;6.29;40.88
40838;BME280;29632;49.168;9.848;2023-02-11T07:11:26;98518.91;;;6.31;40.49
40838;BME280;29632;49.168;9.848;2023-02-11T07:13:54;98508.44;;;6.34;40.80
40838;BME280;29632;49.168;9.848;2023-02-11T07:16:21;98506.59;;;6.36;40.55
40838;BME280;29632;49.168;9.848;2023-02-11T07:18:47;98497.88;;;6.38;40.65
40838;BME280;29632;49.168;9.848;2023-02-11T07:21:14;98501.22;;;6.40;40.45
40838;BME280;29632;49.168;9.848;2023-02-11T07:23:40;98508.69;;;6.47;40.61
40838;BME280;29632;49.168;9.848;2023-02-11T07:26:09;98510.88;;;6.54;40.89
40838;BME280;29632;49.168;9.848;2023-02-11T07:28:35;98507.06;;;6.61;40.51
40838;BME280;29632;49.168;9.848;2023-02-11T07:31:09;98507.69;;;6.67;40.21
40838;BME280;29632;49.168;9.848;2023-02-11T07:33:36;98503.31;;;6.67;40.47
40838;BME280;29632;49.168;9.848;2023-02-11T07:36:03;98501.75;;;6.65;40.60
40838;BME280;29632;49.168;9.848;2023-02-11T07:38:30;98505.97;;;6.66;40.49
40838;BME280;29632;49.168;9.848;2023-02-11T07:40:59;98512.72;;;6.70;40.91
40838;BME280;29632;49.168;9.848;2023-02-11T07:43:26;98505.47;;;6.76;40.27
40838;BME280;29632;49.168;9.848;2023-02-11T07:45:51;98515.75;;;6.78;40.28
40838;BME280;29632;49.168;9.848;2023-02-11T07:48:17;98519.09;;;6.80;40.68
40838;BME280;29632;49.168;9.848;2023-02-11T07:50:42;98520.59;;;6.84;40.49
40838;BME280;29632;49.168;9.848;2023-02-11T07:53:08;98519.72;;;6.85;40.38
40838;BME280;29632;49.168;9.848;2023-02-11T07:55:34;98522.38;;;6.84;40.14
40838;BME280;29632;49.168;9.848;2023-02-11T07:57:59;98507.06;;;6.79;40.19
40838;BME280;29632;49.168;9.848;2023-02-11T08:00:25;98506.53;;;6.72;40.39
40838;BME280;29632;49.168;9.848;2023-02-11T08:02:51;98520.41;;;6.71;40.33
40838;BME280;29632;49.168;9.848;2023-02-11T08:05:16;98520.31;;;6.73;40.37
40838;BME280;29632;49.168;9.848;2023-02-11T08:07:42;98519.41;;;6.74;40.46
40838;BME280;29632;49.168;9.848;2023-02-11T08:10:08;98521.09;;;6.75;41.13
40838;BME280;29632;49.168;9.848;2023-02-11T08:12:34;98532.06;;;6.80;40.81
40838;BME280;29632;49.168;9.848;2023-02-11T08:14:59;98542.16;;;6.85;41.15
40838;BME280;29632;49.168;9.848;2023-02-11T08:17:25;98534.16;;;6.89;40.21
40838;BME280;29632;49.168;9.848;2023-02-11T08:19:50;98537.50;;;6.91;40.80
40838;BME280;29632;49.168;9.848;2023-02-11T08:22:16;98531.28;;;6.95;40.77
40838;BME280;29632;49.168;9.848;2023-02-11T08:24:42;98534.44;;;7.00;40.43
40838;BME280;29632;49.168;9.848;2023-02-11T08:27:07;98529.94;;;7.04;40.25
40838;BME280;29632;49.168;9.848;2023-02-11T08:29:33;98525.47;;;7.08;40.25
40838;BME280;29632;49.168;9.848;2023-02-11T08:31:58;98523.53;;;7.11;40.32
40838;BME280;29632;49.168;9.848;2023-02-11T08:34:24;98519.28;;;7.10;40.26
40838;BME280;29632;49.168;9.848;2023-02-11T08:36:50;98517.75;;;7.06;40.31
40838;BME280;29632;49.168;9.848;2023-02-11T08:39:18;98524.59;;;7.07;40.73
40838;BME280;29632;49.168;9.848;2023-02-11T08:41:45;98534.88;;;7.09;40.18
40838;BME280;29632;49.168;9.848;2023-02-11T08:44:11;98533.06;;;7.11;40.55
40838;BME280;29632;49.168;9.848;2023-02-11T08:46:36;98536.31;;;7.14;40.46
40838;BME280;29632;49.168;9.848;2023-02-11T08:49:02;98537.84;;;7.18;40.44
40838;BME280;29632;49.168;9.848;2023-02-11T08:51:28;98540.25;;;7.22;40.56
40838;BME280;29632;49.168;9.848;2023-02-11T08:53:58;98538.47;;;7.24;40.95
40838;BME280;29632;49.168;9.848;2023-02-11T08:56:24;98530.34;;;7.30;40.93
40838;BME280;29632;49.168;9.848;2023-02-11T08:58:50;98530.63;;;7.41;40.50
40838;BME280;29632;49.168;9.848;2023-02-11T09:01:23;98531.63;;;7.70;40.47
40838;BME280;29632;49.168;9.848;2023-02-11T09:03:49;98532.56;;;8.01;40.00
40838;BME280;29632;49.168;9.848;2023-02-11T09:06:15;98523.72;;;8.52;39.50
40838;BME280;29632;49.168;9.848;2023-02-11T09:08:45;98533.66;;;9.18;39.21
40838;BME280;29632;49.168;9.848;2023-02-11T09:11:11;98540.66;;;9.88;37.98
40838;BME280;29632;49.168;9.848;2023-02-11T09:13:37;98539.22;;;10.38;37.68
40838;BME280;29632;49.168;9.848;2023-02-11T09:16:03;98531.59;;;10.75;37.42
40838;BME280;29632;49.168;9.848;2023-02-11T09:18:30;98533.47;;;11.12;37.14
40838;BME280;29632;49.168;9.848;2023-02-11T09:21:07;98532.84;;;11.34;37.23
40838;BME280;29632;49.168;9.848;2023-02-11T09:23:34;98525.53;;;11.39;37.47
40838;BME280;29632;49.168;9.848;2023-02-11T09:26:07;98535.66;;;11.44;37.83
40838;BME280;29632;49.168;9.848;2023-02-11T09:28:33;98530.31;;;11.45;37.74
40838;BME280;29632;49.168;9.848;2023-02-11T09:31:04;98523.00;;;11.50;38.13
40838;BME280;29632;49.168;9.848;2023-02-11T09:33:30;98518.38;;;11.67;38.08
40838;BME280;29632;49.168;9.848;2023-02-11T09:36:03;98527.75;;;11.95;38.16
40838;BME280;29632;49.168;9.848;2023-02-11T09:38:30;98522.59;;;12.42;38.00
40838;BME280;29632;49.168;9.848;2023-02-11T09:40:55;98514.19;;;12.96;37.61
40838;BME280;29632;49.168;9.848;2023-02-11T09:43:36;98512.56;;;13.52;36.77
40838;BME280;29632;49.168;9.848;2023-02-11T09:46:06;98511.94;;;13.93;36.58
40838;BME280;29632;49.168;9.848;2023-02-11T09:48:38;98504.69;;;14.18;36.77
40838;BME280;29632;49.168;9.848;2023-02-11T09:51:06;98515.59;;;14.34;36.21
40838;BME280;29632;49.168;9.848;2023-02-11T09:53:40;98519.53;;;14.40;36.51
40838;BME280;29632;49.168;9.848;2023-02-11T09:56:11;98513.88;;;14.45;36.82
40838;BME280;29632;49.168;9.848;2023-02-11T09:58:40;98523.41;;;14.46;37.04
40838;BME280;29632;49.168;9.848;2023-02-11T10:04:06;98514.34;;;14.50;37.19
40838;BME280;29632;49.168;9.848;2023-02-11T10:06:49;98516.00;;;14.51;37.48
40838;BME280;29632;49.168;9.848;2023-02-11T10:20:24;98522.50;;;15.10;37.94
40838;BME280;29632;49.168;9.848;2023-02-11T10:23:00;98524.59;;;15.47;37.79
40838;BME280;29632;49.168;9.848;2023-02-11T10:25:37;98518.22;;;15.80;37.50
40838;BME280;29632;49.168;9.848;2023-02-11T10:28:12;98517.03;;;16.14;37.05
40838;BME280;29632;49.168;9.848;2023-02-11T10:33:33;98511.88;;;17.00;36.45
40838;BME280;29632;49.168;9.848;2023-02-11T10:36:03;98512.94;;;17.27;36.31
40838;BME280;29632;49.168;9.848;2023-02-11T10:38:28;98506.59;;;17.47;36.34
40838;BME280;29632;49.168;9.848;2023-02-11T10:40:55;98514.31;;;17.59;36.05
40838;BME280;29632;49.168;9.848;2023-02-11T10:43:23;98508.53;;;17.73;36.13
40838;BME280;29632;49.168;9.848;2023-02-11T10:45:52;98497.53;;;17.87;35.97
40838;BME280;29632;49.168;9.848;2023-02-11T10:48:47;98496.72;;;18.05;35.76
40838;BME280;29632;49.168;9.848;2023-02-11T10:51:26;98491.16;;;18.08;35.72
40838;BME280;29632;49.168;9.848;2023-02-11T10:56:43;98506.44;;;17.49;36.08
40838;BME280;29632;49.168;9.848;2023-02-11T11:01:52;98495.59;;;16.87;36.75
40838;BME280;29632;49.168;9.848;2023-02-11T11:04:41;98503.91;;;16.63;37.08
40838;BME280;29632;49.168;9.848;2023-02-11T11:07:19;98510.53;;;16.47;37.36
40838;BME280;29632;49.168;9.848;2023-02-11T11:12:30;98506.66;;;16.12;37.60
40838;BME280;29632;49.168;9.848;2023-02-11T11:14:59;98516.19;;;16.03;37.79
40838;BME280;29632;49.168;9.848;2023-02-11T11:17:25;98508.56;;;16.00;37.58
40838;BME280;29632;49.168;9.848;2023-02-11T11:20:13;98504.31;;;15.99;37.69
40838;BME280;29632;49.168;9.848;2023-02-11T11:22:39;98505.81;;;15.92;37.69
40838;BME280;29632;49.168;9.848;2023-02-11T11:25:19;98514.78;;;15.80;37.86
40838;BME280;29632;49.168;9.848;2023-02-11T11:27:50;98508.63;;;15.70;37.89
40838;BME280;29632;49.168;9.848;2023-02-11T11:30:17;98495.72;;;15.57;37.90
40838;BME280;29632;49.168;9.848;2023-02-11T11:32:43;98497.09;;;15.41;38.00
40838;BME280;29632;49.168;9.848;2023-02-11T11:35:26;98506.28;;;15.36;38.26
40838;BME280;29632;49.168;9.848;2023-02-11T11:38:03;98509.91;;;15.35;38.05
40838;BME280;29632;49.168;9.848;2023-02-11T11:40:31;98502.84;;;15.35;38.15
40838;BME280;29632;49.168;9.848;2023-02-11T11:43:03;98501.91;;;15.36;38.17
40838;BME280;29632;49.168;9.848;2023-02-11T11:45:29;98500.91;;;15.37;37.87
40838;BME280;29632;49.168;9.848;2023-02-11T11:48:21;98502.84;;;15.35;38.07
40838;BME280;29632;49.168;9.848;2023-02-11T11:50:58;98498.72;;;15.33;37.99
40838;BME280;29632;49.168;9.848;2023-02-11T11:53:38;98499.34;;;15.25;37.86
40838;BME280;29632;49.168;9.848;2023-02-11T11:56:10;98503.84;;;15.13;38.07
40838;BME280;29632;49.168;9.848;2023-02-11T11:58:37;98502.41;;;14.99;38.12
40838;BME280;29632;49.168;9.848;2023-02-11T12:06:56;98501.91;;;14.63;38.32
40838;BME280;29632;49.168;9.848;2023-02-11T12:12:16;98514.34;;;14.50;38.60
40838;BME280;29632;49.168;9.848;2023-02-11T12:25:45;98516.13;;;14.17;38.78
40838;BME280;29632;49.168;9.848;2023-02-11T12:28:32;98514.38;;;14.06;38.88
40838;BME280;29632;49.168;9.848;2023-02-11T12:36:33;98510.28;;;13.81;38.76
40838;BME280;29632;49.168;9.848;2023-02-11T12:39:17;98516.72;;;13.77;38.54
40838;BME280;29632;49.168;9.848;2023-02-11T12:50:24;98480.69;;;13.58;38.79
40838;BME280;29632;49.168;9.848;2023-02-11T12:55:31;98473.06;;;13.55;38.53
40838;BME280;29632;49.168;9.848;2023-02-11T12:58:01;98475.81;;;13.53;38.81
40838;BME280;29632;49.168;9.848;2023-02-11T13:03:11;98471.31;;;13.44;38.63
40838;BME280;29632;49.168;9.848;2023-02-11T13:08:32;98460.38;;;13.39;38.90
40838;BME280;29632;49.168;9.848;2023-02-11T13:11:19;98449.31;;;13.35;38.86
40838;BME280;29632;49.168;9.848;2023-02-11T13:16:40;98448.22;;;13.27;38.89
40838;BME280;29632;49.168;9.848;2023-02-11T13:21:59;98464.03;;;13.14;38.94
40838;BME280;29632;49.168;9.848;2023-02-11T13:32:24;98469.88;;;12.95;39.15
40838;BME280;29632;49.168;9.848;2023-02-11T13:40:02;98458.56;;;12.83;39.20
40838;BME280;29632;49.168;9.848;2023-02-11T13:42:29;98458.31;;;12.75;39.05
40838;BME280;29632;49.168;9.848;2023-02-11T13:44:56;98461.84;;;12.74;39.14
40838;BME280;29632;49.168;9.848;2023-02-11T13:49:55;98465.69;;;12.81;39.19
40838;BME280;29632;49.168;9.848;2023-02-11T13:52:33;98465.44;;;12.84;38.84
40838;BME280;29632;49.168;9.848;2023-02-11T13:57:39;98462.47;;;12.89;38.92
40838;BME280;29632;49.168;9.848;2023-02-11T14:00:41;98470.59;;;12.97;38.75
40838;BME280;29632;49.168;9.848;2023-02-11T14:11:47;98459.06;;;13.11;38.37
40838;BME280;29632;49.168;9.848;2023-02-11T14:19:34;98483.41;;;13.11;38.61
40838;BME280;29632;49.168;9.848;2023-02-11T14:29:37;98481.16;;;13.07;38.72
40838;BME280;29632;49.168;9.848;2023-02-11T14:40:45;98484.22;;;12.89;38.98
40838;BME280;29632;49.168;9.848;2023-02-11T14:43:20;98485.19;;;12.88;39.08
40838;BME280;29632;49.168;9.848;2023-02-11T14:45:50;98484.59;;;12.84;38.93
40838;BME280;29632;49.168;9.848;2023-02-11T14:48:18;98485.75;;;12.80;38.91
40838;BME280;29632;49.168;9.848;2023-02-11T14:50:50;98473.66;;;12.79;38.72
40838;BME280;29632;49.168;9.848;2023-02-11T14:53:21;98478.88;;;12.79;38.68
40838;BME280;29632;49.168;9.848;2023-02-11T14:55:50;98474.00;;;12.75;39.03
40838;BME280;29632;49.168;9.848;2023-02-11T15:00:54;98481.22;;;12.71;38.68
40838;BME280;29632;49.168;9.848;2023-02-11T15:03:28;98482.91;;;12.72;38.85
40838;BME280;29632;49.168;9.848;2023-02-11T15:05:55;98481.94;;;12.73;38.69
40838;BME280;29632;49.168;9.848;2023-02-11T15:08:22;98489.69;;;12.75;38.79
40838;BME280;29632;49.168;9.848;2023-02-11T15:10:48;98499.53;;;12.71;38.85
40838;BME280;29632;49.168;9.848;2023-02-11T15:13:19;98500.47;;;12.70;38.99
40838;BME280;29632;49.168;9.848;2023-02-11T15:15:46;98490.88;;;12.71;38.71
40838;BME280;29632;49.168;9.848;2023-02-11T15:18:20;98488.69;;;12.64;38.76
40838;BME280;29632;49.168;9.848;2023-02-11T15:20:48;98501.28;;;12.59;38.81
40838;BME280;29632;49.168;9.848;2023-02-11T15:23:23;98501.63;;;12.55;39.04
40838;BME280;29632;49.168;9.848;2023-02-11T15:25:49;98514.72;;;12.55;38.82
40838;BME280;29632;49.168;9.848;2023-02-11T15:28:25;98514.94;;;12.52;39.11
40838;BME280;29632;49.168;9.848;2023-02-11T15:31:04;98530.59;;;12.52;38.83
40838;BME280;29632;49.168;9.848;2023-02-11T15:33:31;98529.78;;;12.51;39.18
40838;BME280;29632;49.168;9.848;2023-02-11T15:36:03;98520.25;;;12.50;38.78
40838;BME280;29632;49.168;9.848;2023-02-11T15:38:29;98517.66;;;12.50;39.10
40838;BME280;29632;49.168;9.848;2023-02-11T15:40:57;98525.81;;;12.45;38.97
40838;BME280;29632;49.168;9.848;2023-02-11T15:43:48;98530.53;;;12.40;39.12
40838;BME280;29632;49.168;9.848;2023-02-11T15:46:19;98531.13;;;12.33;38.99
40838;BME280;29632;49.168;9.848;2023-02-11T15:48:51;98529.91;;;12.25;38.89
40838;BME280;29632;49.168;9.848;2023-02-11T15:51:28;98532.84;;;12.21;39.24
40838;BME280;29632;49.168;9.848;2023-02-11T15:53:58;98521.78;;;12.17;39.07
40838;BME280;29632;49.168;9.848;2023-02-11T15:56:28;98528.59;;;12.20;39.08
40838;BME280;29632;49.168;9.848;2023-02-11T15:58:56;98528.59;;;12.20;39.29
40838;BME280;29632;49.168;9.848;2023-02-11T16:01:32;98519.28;;;12.16;39.32